58.9°F
Current conditions from King Hill
Updated every 5 minutes
 
  Monday July 28, 2014

Station Historical Data
Daily Summary for August 3, 2012 Units:  Both    English   Metric
« Previous Day
Next Day »
Daily Weekly Monthly Yearly Custom
  High: Low: Average:
Temperature: 87.4 °F /  30.8 °C 61.4 °F /  16.3 °C 73.9 °F /  23.3 °C
Dew Point: 70.9 °F /  21.6 °C 57.8 °F /  14.3 °C 63.6 °F /  17.6 °C
Humidity: 88% 50% 72%
Wind Speed: 6.0mph /  9.7km/h - 2.2mph /  3.5km/h
Wind Gust: 14.0mph /  22.5km/h - -
Wind- - SW
Pressure: 30.06 in /  1017.8 hPa 29.80 in /  1009 hPa -
Precipitation: 0.00 in /  0 mm    
Historical Graphs
 
 
Tabular Data for August 3, 2012
Time Temperature Dew Point Pressure Wind Wind Speed Wind Gust Humidity Daily Rainfall
00:00 68.6 °F /  20.3 °C 58.4 °F /  14.7 °C 29.81in /  1009.4hPa Calm   3.0mph /  4.8km/h 70% 0.00in /  0mm
00:05 68.5 °F /  20.3 °C 58.7 °F /  14.8 °C 29.81in /  1009.4hPa Calm   1.0mph /  1.6km/h 71% 0.00in /  0mm
00:10 67.9 °F /  19.9 °C 58.2 °F /  14.6 °C 29.81in /  1009.4hPa West 1.0mph /  1.6km/h 2.0mph /  3.2km/h 71% 0.00in /  0mm
00:15 67.4 °F /  19.7 °C 58.1 °F /  14.5 °C 29.81in /  1009.4hPa Calm   2.0mph /  3.2km/h 72% 0.00in /  0mm
00:20 67.0 °F /  19.4 °C 58.4 °F /  14.7 °C 29.82in /  1009.7hPa Calm   2.0mph /  3.2km/h 74% 0.00in /  0mm
00:25 66.5 °F /  19.2 °C 58.7 °F /  14.8 °C 29.82in /  1009.7hPa Calm     76% 0.00in /  0mm
00:30 66.0 °F /  18.9 °C 59.0 °F /  15 °C 29.81in /  1009.4hPa Calm   1.0mph /  1.6km/h 78% 0.00in /  0mm
00:35 65.8 °F /  18.8 °C 59.1 °F /  15.1 °C 29.81in /  1009.4hPa Calm   1.0mph /  1.6km/h 79% 0.00in /  0mm
00:40 65.7 °F /  18.7 °C 59.7 °F /  15.4 °C 29.81in /  1009.4hPa Calm     81% 0.00in /  0mm
00:45 65.6 °F /  18.7 °C 60.0 °F /  15.6 °C 29.81in /  1009.4hPa Calm     82% 0.00in /  0mm
00:50 65.6 °F /  18.7 °C 60.3 °F /  15.7 °C 29.81in /  1009.4hPa Calm     83% 0.00in /  0mm
00:55 65.8 °F /  18.8 °C 60.8 °F /  16 °C 29.81in /  1009.4hPa Calm     84% 0.00in /  0mm
01:00 65.8 °F /  18.8 °C 61.2 °F /  16.2 °C 29.81in /  1009.4hPa Calm   1.0mph /  1.6km/h 85% 0.00in /  0mm
01:05 65.9 °F /  18.8 °C 61.3 °F /  16.3 °C 29.81in /  1009.4hPa Calm   3.0mph /  4.8km/h 85% 0.00in /  0mm
01:10 66.1 °F /  18.9 °C 61.8 °F /  16.6 °C 29.81in /  1009.4hPa Calm   3.0mph /  4.8km/h 86% 0.00in /  0mm
01:15 66.3 °F /  19.1 °C 62.0 °F /  16.7 °C 29.80in /  1009hPa Calm   1.0mph /  1.6km/h 86% 0.00in /  0mm
01:20 66.5 °F /  19.2 °C 62.2 °F /  16.8 °C 29.80in /  1009hPa Calm   1.0mph /  1.6km/h 86% 0.00in /  0mm
01:25 66.6 °F /  19.2 °C 62.3 °F /  16.8 °C 29.80in /  1009hPa Calm   3.0mph /  4.8km/h 86% 0.00in /  0mm
01:30 66.8 °F /  19.3 °C 62.1 °F /  16.7 °C 29.80in /  1009hPa Calm   3.0mph /  4.8km/h 85% 0.00in /  0mm
01:35 66.9 °F /  19.4 °C 62.2 °F /  16.8 °C 29.80in /  1009hPa Calm   3.0mph /  4.8km/h 85% 0.00in /  0mm
01:40 67.0 °F /  19.4 °C 62.3 °F /  16.8 °C 29.80in /  1009hPa West 1.0mph /  1.6km/h 3.0mph /  4.8km/h 85% 0.00in /  0mm
01:45 67.2 °F /  19.6 °C 62.2 °F /  16.8 °C 29.80in /  1009hPa Calm   3.0mph /  4.8km/h 84% 0.00in /  0mm
01:50 67.3 °F /  19.6 °C 62.3 °F /  16.8 °C 29.80in /  1009hPa Calm   3.0mph /  4.8km/h 84% 0.00in /  0mm
01:55 67.2 °F /  19.6 °C 61.9 °F /  16.6 °C 29.80in /  1009hPa West 1.0mph /  1.6km/h 3.0mph /  4.8km/h 83% 0.00in /  0mm
02:00 67.1 °F /  19.5 °C 61.8 °F /  16.6 °C 29.81in /  1009.4hPa Calm   3.0mph /  4.8km/h 83% 0.00in /  0mm
02:05 67.0 °F /  19.4 °C 61.7 °F /  16.5 °C 29.81in /  1009.4hPa West 1.0mph /  1.6km/h 2.0mph /  3.2km/h 83% 0.00in /  0mm
02:10 66.9 °F /  19.4 °C 61.9 °F /  16.6 °C 29.81in /  1009.4hPa Calm   2.0mph /  3.2km/h 84% 0.00in /  0mm
02:15 66.7 °F /  19.3 °C 61.7 °F /  16.5 °C 29.80in /  1009hPa Calm   1.0mph /  1.6km/h 84% 0.00in /  0mm
02:20 66.5 °F /  19.2 °C 61.5 °F /  16.4 °C 29.81in /  1009.4hPa West 2.0mph /  3.2km/h 3.0mph /  4.8km/h 84% 0.00in /  0mm
02:25 66.3 °F /  19.1 °C 61.3 °F /  16.3 °C 29.81in /  1009.4hPa West 2.0mph /  3.2km/h 3.0mph /  4.8km/h 84% 0.00in /  0mm
02:30 66.1 °F /  18.9 °C 61.1 °F /  16.2 °C 29.80in /  1009hPa Calm   3.0mph /  4.8km/h 84% 0.00in /  0mm
02:35 65.9 °F /  18.8 °C 60.9 °F /  16.1 °C 29.81in /  1009.4hPa West 2.0mph /  3.2km/h 4.0mph /  6.4km/h 84% 0.00in /  0mm
02:40 65.7 °F /  18.7 °C 60.7 °F /  15.9 °C 29.80in /  1009hPa Calm   4.0mph /  6.4km/h 84% 0.00in /  0mm
02:45 65.6 °F /  18.7 °C 60.6 °F /  15.9 °C 29.81in /  1009.4hPa Calm   2.0mph /  3.2km/h 84% 0.00in /  0mm
02:50 65.5 °F /  18.6 °C 60.5 °F /  15.8 °C 29.80in /  1009hPa Calm   3.0mph /  4.8km/h 84% 0.00in /  0mm
02:55 65.5 °F /  18.6 °C 60.5 °F /  15.8 °C 29.81in /  1009.4hPa Calm   3.0mph /  4.8km/h 84% 0.00in /  0mm
03:00 65.5 °F /  18.6 °C 60.5 °F /  15.8 °C 29.81in /  1009.4hPa SW 2.0mph /  3.2km/h 3.0mph /  4.8km/h 84% 0.00in /  0mm
03:05 65.5 °F /  18.6 °C 60.5 °F /  15.8 °C 29.81in /  1009.4hPa Calm   3.0mph /  4.8km/h 84% 0.00in /  0mm
03:10 65.4 °F /  18.6 °C 60.4 °F /  15.8 °C 29.81in /  1009.4hPa Calm   2.0mph /  3.2km/h 84% 0.00in /  0mm
03:15 65.3 °F /  18.5 °C 60.3 °F /  15.7 °C 29.81in /  1009.4hPa Calm   3.0mph /  4.8km/h 84% 0.00in /  0mm
03:25 65.0 °F /  18.3 °C 60.1 °F /  15.6 °C 29.81in /  1009.4hPa SW 1.0mph /  1.6km/h 4.0mph /  6.4km/h 84% 0.00in /  0mm
03:30 64.9 °F /  18.3 °C 60.0 °F /  15.6 °C 29.81in /  1009.4hPa SW 2.0mph /  3.2km/h 4.0mph /  6.4km/h 84% 0.00in /  0mm
03:35 64.9 °F /  18.3 °C 60.0 °F /  15.6 °C 29.82in /  1009.7hPa SW 2.0mph /  3.2km/h 4.0mph /  6.4km/h 84% 0.00in /  0mm
03:40 64.9 °F /  18.3 °C 60.0 °F /  15.6 °C 29.81in /  1009.4hPa Calm   4.0mph /  6.4km/h 84% 0.00in /  0mm
03:45 64.8 °F /  18.2 °C 59.9 °F /  15.5 °C 29.81in /  1009.4hPa Calm   3.0mph /  4.8km/h 84% 0.00in /  0mm
03:50 64.8 °F /  18.2 °C 59.9 °F /  15.5 °C 29.81in /  1009.4hPa Calm   4.0mph /  6.4km/h 84% 0.00in /  0mm
04:00 64.8 °F /  18.2 °C 59.9 °F /  15.5 °C 29.82in /  1009.7hPa Calm   3.0mph /  4.8km/h 84% 0.00in /  0mm
04:05 65.0 °F /  18.3 °C 60.1 °F /  15.6 °C 29.82in /  1009.7hPa Calm   3.0mph /  4.8km/h 84% 0.00in /  0mm
04:10 65.2 °F /  18.4 °C 59.9 °F /  15.5 °C 29.82in /  1009.7hPa Calm   3.0mph /  4.8km/h 83% 0.00in /  0mm
04:20 65.7 °F /  18.7 °C 60.1 °F /  15.6 °C 29.82in /  1009.7hPa Calm   3.0mph /  4.8km/h 82% 0.00in /  0mm
04:25 65.8 °F /  18.8 °C 59.8 °F /  15.4 °C 29.82in /  1009.7hPa Calm   3.0mph /  4.8km/h 81% 0.00in /  0mm
04:30 66.2 °F /  19 °C 60.2 °F /  15.7 °C 29.82in /  1009.7hPa SSW 1.0mph /  1.6km/h 5.0mph /  8km/h 81% 0.00in /  0mm
04:35 66.6 °F /  19.2 °C 60.2 °F /  15.7 °C 29.82in /  1009.7hPa SSW 3.0mph /  4.8km/h 5.0mph /  8km/h 80% 0.00in /  0mm
04:40 66.8 °F /  19.3 °C 60.1 °F /  15.6 °C 29.82in /  1009.7hPa SSW 2.0mph /  3.2km/h 5.0mph /  8km/h 79% 0.00in /  0mm
04:45 66.8 °F /  19.3 °C 60.1 °F /  15.6 °C 29.82in /  1009.7hPa Calm   4.0mph /  6.4km/h 79% 0.00in /  0mm
04:50 66.8 °F /  19.3 °C 60.1 °F /  15.6 °C 29.83in /  1010hPa SSW 2.0mph /  3.2km/h 5.0mph /  8km/h 79% 0.00in /  0mm
04:55 66.8 °F /  19.3 °C 60.1 °F /  15.6 °C 29.83in /  1010hPa Calm   5.0mph /  8km/h 79% 0.00in /  0mm
05:00 66.6 °F /  19.2 °C 59.9 °F /  15.5 °C 29.83in /  1010hPa Calm   3.0mph /  4.8km/h 79% 0.00in /  0mm
05:05 66.4 °F /  19.1 °C 59.7 °F /  15.4 °C 29.83in /  1010hPa SSW 1.0mph /  1.6km/h 4.0mph /  6.4km/h 79% 0.00in /  0mm
05:10 66.2 °F /  19 °C 59.5 °F /  15.3 °C 29.83in /  1010hPa SSW 1.0mph /  1.6km/h 4.0mph /  6.4km/h 79% 0.00in /  0mm
05:15 66.1 °F /  18.9 °C 59.8 °F /  15.4 °C 29.83in /  1010hPa Calm   4.0mph /  6.4km/h 80% 0.00in /  0mm
05:20 65.9 °F /  18.8 °C 59.6 °F /  15.3 °C 29.84in /  1010.4hPa Calm   2.0mph /  3.2km/h 80% 0.00in /  0mm
05:25 65.5 °F /  18.6 °C 59.5 °F /  15.3 °C 29.84in /  1010.4hPa Calm   4.0mph /  6.4km/h 81% 0.00in /  0mm
05:30 65.2 °F /  18.4 °C 59.6 °F /  15.3 °C 29.84in /  1010.4hPa SSW 1.0mph /  1.6km/h 4.0mph /  6.4km/h 82% 0.00in /  0mm
05:35 65.1 °F /  18.4 °C 59.5 °F /  15.3 °C 29.84in /  1010.4hPa SSW 2.0mph /  3.2km/h 3.0mph /  4.8km/h 82% 0.00in /  0mm
05:39 65.2 °F /  18.4 °C 59.6 °F /  15.3 °C 29.84in /  1010.4hPa SSW 1.0mph /  1.6km/h 3.0mph /  4.8km/h 82% 0.00in /  0mm
05:45 65.2 °F /  18.4 °C 59.6 °F /  15.3 °C 29.85in /  1010.7hPa SSW 1.0mph /  1.6km/h 4.0mph /  6.4km/h 82% 0.00in /  0mm
05:50 65.2 °F /  18.4 °C 59.6 °F /  15.3 °C 29.85in /  1010.7hPa SSW 1.0mph /  1.6km/h 4.0mph /  6.4km/h 82% 0.00in /  0mm
05:55 65.6 °F /  18.7 °C 60.0 °F /  15.6 °C 29.84in /  1010.4hPa SSW 2.0mph /  3.2km/h 4.0mph /  6.4km/h 82% 0.00in /  0mm
06:00 65.8 °F /  18.8 °C 60.2 °F /  15.7 °C 29.84in /  1010.4hPa Calm   4.0mph /  6.4km/h 82% 0.00in /  0mm
06:10 66.0 °F /  18.9 °C 60.0 °F /  15.6 °C 29.84in /  1010.4hPa SSW 1.0mph /  1.6km/h 4.0mph /  6.4km/h 81% 0.00in /  0mm
06:15 66.3 °F /  19.1 °C 60.3 °F /  15.7 °C 29.84in /  1010.4hPa SSW 1.0mph /  1.6km/h 5.0mph /  8km/h 81% 0.00in /  0mm
06:20 66.5 °F /  19.2 °C 60.5 °F /  15.8 °C 29.85in /  1010.7hPa SSW 2.0mph /  3.2km/h 5.0mph /  8km/h 81% 0.00in /  0mm
06:25 66.8 °F /  19.3 °C 60.8 °F /  16 °C 29.85in /  1010.7hPa Calm   4.0mph /  6.4km/h 81% 0.00in /  0mm
06:30 67.1 °F /  19.5 °C 61.1 °F /  16.2 °C 29.85in /  1010.7hPa SSW 1.0mph /  1.6km/h 4.0mph /  6.4km/h 81% 0.00in /  0mm
06:35 67.4 °F /  19.7 °C 61.0 °F /  16.1 °C 29.85in /  1010.7hPa SSW 3.0mph /  4.8km/h 5.0mph /  8km/h 80% 0.00in /  0mm
06:40 67.9 °F /  19.9 °C 61.5 °F /  16.4 °C 29.85in /  1010.7hPa SSW 1.0mph /  1.6km/h 6.0mph /  9.7km/h 80% 0.00in /  0mm
06:45 68.0 °F /  20 °C 61.3 °F /  16.3 °C 29.86in /  1011.1hPa Calm   6.0mph /  9.7km/h 79% 0.00in /  0mm
06:55 68.3 °F /  20.2 °C 61.5 °F /  16.4 °C 29.86in /  1011.1hPa SW 2.0mph /  3.2km/h 4.0mph /  6.4km/h 79% 0.00in /  0mm
07:00 68.4 °F /  20.2 °C 61.6 °F /  16.4 °C 29.86in /  1011.1hPa SW 1.0mph /  1.6km/h 4.0mph /  6.4km/h 79% 0.00in /  0mm
07:05 68.5 °F /  20.3 °C 61.4 °F /  16.3 °C 29.86in /  1011.1hPa SW 1.0mph /  1.6km/h 4.0mph /  6.4km/h 78% 0.00in /  0mm
07:10 68.5 °F /  20.3 °C 61.4 °F /  16.3 °C 29.86in /  1011.1hPa SW 1.0mph /  1.6km/h 4.0mph /  6.4km/h 78% 0.00in /  0mm
07:20 68.5 °F /  20.3 °C 61.4 °F /  16.3 °C 29.87in /  1011.4hPa SSW 1.0mph /  1.6km/h 6.0mph /  9.7km/h 78% 0.00in /  0mm
07:25 68.6 °F /  20.3 °C 61.5 °F /  16.4 °C 29.87in /  1011.4hPa SW 4.0mph /  6.4km/h 7.0mph /  11.3km/h 78% 0.00in /  0mm
07:30 68.8 °F /  20.4 °C 61.7 °F /  16.5 °C 29.87in /  1011.4hPa SSW 3.0mph /  4.8km/h 7.0mph /  11.3km/h 78% 0.00in /  0mm
07:34 68.9 °F /  20.5 °C 61.8 °F /  16.6 °C 29.87in /  1011.4hPa SSW 1.0mph /  1.6km/h 5.0mph /  8km/h 78% 0.00in /  0mm
07:40 68.9 °F /  20.5 °C 61.8 °F /  16.6 °C 29.88in /  1011.7hPa SSW 1.0mph /  1.6km/h 4.0mph /  6.4km/h 78% 0.00in /  0mm
07:45 69.0 °F /  20.6 °C 61.9 °F /  16.6 °C 29.88in /  1011.7hPa SSW 2.0mph /  3.2km/h 5.0mph /  8km/h 78% 0.00in /  0mm
07:50 69.2 °F /  20.7 °C 62.1 °F /  16.7 °C 29.88in /  1011.7hPa SSW 1.0mph /  1.6km/h 5.0mph /  8km/h 78% 0.00in /  0mm
07:55 69.4 °F /  20.8 °C 61.9 °F /  16.6 °C 29.88in /  1011.7hPa SSW 2.0mph /  3.2km/h 4.0mph /  6.4km/h 77% 0.00in /  0mm
08:00 69.6 °F /  20.9 °C 62.4 °F /  16.9 °C 29.88in /  1011.7hPa SSW 1.0mph /  1.6km/h 4.0mph /  6.4km/h 78% 0.00in /  0mm
08:05 69.7 °F /  20.9 °C 62.5 °F /  16.9 °C 29.88in /  1011.7hPa SSW 2.0mph /  3.2km/h 3.0mph /  4.8km/h 78% 0.00in /  0mm
08:10 69.8 °F /  21 °C 62.3 °F /  16.8 °C 29.89in /  1012.1hPa SSW 2.0mph /  3.2km/h 6.0mph /  9.7km/h 77% 0.00in /  0mm
08:15 69.9 °F /  21.1 °C 62.4 °F /  16.9 °C 29.89in /  1012.1hPa SSW 2.0mph /  3.2km/h 6.0mph /  9.7km/h 77% 0.00in /  0mm
08:19 70.1 °F /  21.2 °C 62.2 °F /  16.8 °C 29.89in /  1012.1hPa SSW 4.0mph /  6.4km/h 6.0mph /  9.7km/h 76% 0.00in /  0mm
08:25 70.4 °F /  21.3 °C 62.5 °F /  16.9 °C 29.89in /  1012.1hPa South 4.0mph /  6.4km/h 8.0mph /  12.9km/h 76% 0.00in /  0mm
08:30 70.6 °F /  21.4 °C 62.7 °F /  17.1 °C 29.89in /  1012.1hPa SSW 1.0mph /  1.6km/h 8.0mph /  12.9km/h 76% 0.00in /  0mm
08:35 70.8 °F /  21.6 °C 62.9 °F /  17.2 °C 29.89in /  1012.1hPa SSW 3.0mph /  4.8km/h 6.0mph /  9.7km/h 76% 0.00in /  0mm
08:39 70.8 °F /  21.6 °C 62.9 °F /  17.2 °C 29.89in /  1012.1hPa SW 2.0mph /  3.2km/h 6.0mph /  9.7km/h 76% 0.00in /  0mm
08:45 70.8 °F /  21.6 °C 62.9 °F /  17.2 °C 29.89in /  1012.1hPa SSW 2.0mph /  3.2km/h 6.0mph /  9.7km/h 76% 0.00in /  0mm
08:50 71.2 °F /  21.8 °C 63.6 °F /  17.6 °C 29.89in /  1012.1hPa SSW 2.0mph /  3.2km/h 6.0mph /  9.7km/h 77% 0.00in /  0mm
08:54 71.8 °F /  22.1 °C 63.8 °F /  17.7 °C 29.90in /  1012.4hPa Calm   5.0mph /  8km/h 76% 0.00in /  0mm
08:59 72.4 °F /  22.4 °C 64.0 °F /  17.8 °C 29.89in /  1012.1hPa SSW 2.0mph /  3.2km/h 5.0mph /  8km/h 75% 0.00in /  0mm
09:05 73.1 °F /  22.8 °C 64.3 °F /  17.9 °C 29.89in /  1012.1hPa SW 1.0mph /  1.6km/h 5.0mph /  8km/h 74% 0.00in /  0mm
09:10 73.9 °F /  23.3 °C 64.7 °F /  18.2 °C 29.89in /  1012.1hPa SSW 1.0mph /  1.6km/h 5.0mph /  8km/h 73% 0.00in /  0mm
09:15 74.8 °F /  23.8 °C 65.6 °F /  18.7 °C 29.89in /  1012.1hPa SSW 2.0mph /  3.2km/h 7.0mph /  11.3km/h 73% 0.00in /  0mm
09:19 75.5 °F /  24.2 °C 64.6 °F /  18.1 °C 29.89in /  1012.1hPa SSW 3.0mph /  4.8km/h 7.0mph /  11.3km/h 69% 0.00in /  0mm
09:25 76.2 °F /  24.6 °C 65.7 °F /  18.7 °C 29.89in /  1012.1hPa South 2.0mph /  3.2km/h 7.0mph /  11.3km/h 70% 0.00in /  0mm
09:30 76.8 °F /  24.9 °C 66.3 °F /  19.1 °C 29.89in /  1012.1hPa SSE 1.0mph /  1.6km/h 7.0mph /  11.3km/h 70% 0.00in /  0mm
09:35 77.3 °F /  25.2 °C 65.9 °F /  18.8 °C 29.89in /  1012.1hPa SSW 3.0mph /  4.8km/h 7.0mph /  11.3km/h 68% 0.00in /  0mm
09:40 77.6 °F /  25.3 °C 65.8 °F /  18.8 °C 29.90in /  1012.4hPa SW 6.0mph /  9.7km/h 8.0mph /  12.9km/h 67% 0.00in /  0mm
09:45 77.7 °F /  25.4 °C 66.7 °F /  19.3 °C 29.90in /  1012.4hPa Calm   8.0mph /  12.9km/h 69% 0.00in /  0mm
09:50 78.1 °F /  25.6 °C 65.8 °F /  18.8 °C 29.90in /  1012.4hPa SSW 2.0mph /  3.2km/h 8.0mph /  12.9km/h 66% 0.00in /  0mm
09:55 78.4 °F /  25.8 °C 67.0 °F /  19.4 °C 29.90in /  1012.4hPa West 1.0mph /  1.6km/h 7.0mph /  11.3km/h 68% 0.00in /  0mm
09:59 78.9 °F /  26.1 °C 67.5 °F /  19.7 °C 29.90in /  1012.4hPa Calm   7.0mph /  11.3km/h 68% 0.00in /  0mm
10:05 79.3 °F /  26.3 °C 66.1 °F /  18.9 °C 29.90in /  1012.4hPa WSW 4.0mph /  6.4km/h 9.0mph /  14.5km/h 64% 0.00in /  0mm
10:10 79.3 °F /  26.3 °C 65.6 °F /  18.7 °C 29.90in /  1012.4hPa SW 4.0mph /  6.4km/h 10.0mph /  16.1km/h 63% 0.00in /  0mm
10:15 79.4 °F /  26.3 °C 66.6 °F /  19.2 °C 29.91in /  1012.8hPa SW 3.0mph /  4.8km/h 10.0mph /  16.1km/h 65% 0.00in /  0mm
10:19 79.9 °F /  26.6 °C 67.1 °F /  19.5 °C 29.91in /  1012.8hPa WSW 4.0mph /  6.4km/h 8.0mph /  12.9km/h 65% 0.00in /  0mm
10:25 80.2 °F /  26.8 °C 66.5 °F /  19.2 °C 29.90in /  1012.4hPa SW 3.0mph /  4.8km/h 8.0mph /  12.9km/h 63% 0.00in /  0mm
10:30 80.2 °F /  26.8 °C 66.9 °F /  19.4 °C 29.91in /  1012.8hPa SW 5.0mph /  8km/h 11.0mph /  17.7km/h 64% 0.00in /  0mm
10:35 80.3 °F /  26.8 °C 67.0 °F /  19.4 °C 29.91in /  1012.8hPa SW 4.0mph /  6.4km/h 11.0mph /  17.7km/h 64% 0.00in /  0mm
10:39 80.2 °F /  26.8 °C 66.9 °F /  19.4 °C 29.90in /  1012.4hPa SSW 4.0mph /  6.4km/h 9.0mph /  14.5km/h 64% 0.00in /  0mm
10:45 80.5 °F /  26.9 °C 67.7 °F /  19.8 °C 29.90in /  1012.4hPa WSW 2.0mph /  3.2km/h 9.0mph /  14.5km/h 65% 0.00in /  0mm
10:50 80.3 °F /  26.8 °C 66.6 °F /  19.2 °C 29.90in /  1012.4hPa WSW 4.0mph /  6.4km/h 9.0mph /  14.5km/h 63% 0.00in /  0mm
10:55 80.0 °F /  26.7 °C 66.3 °F /  19.1 °C 29.90in /  1012.4hPa West 2.0mph /  3.2km/h 9.0mph /  14.5km/h 63% 0.00in /  0mm
10:59 80.2 °F /  26.8 °C 66.9 °F /  19.4 °C 29.90in /  1012.4hPa SW 5.0mph /  8km/h 9.0mph /  14.5km/h 64% 0.00in /  0mm
11:05 80.2 °F /  26.8 °C 66.5 °F /  19.2 °C 29.90in /  1012.4hPa SSW 5.0mph /  8km/h 9.0mph /  14.5km/h 63% 0.00in /  0mm
11:10 80.2 °F /  26.8 °C 66.0 °F /  18.9 °C 29.90in /  1012.4hPa West 4.0mph /  6.4km/h 9.0mph /  14.5km/h 62% 0.00in /  0mm
11:14 80.4 °F /  26.9 °C 67.1 °F /  19.5 °C 29.90in /  1012.4hPa SW 4.0mph /  6.4km/h 8.0mph /  12.9km/h 64% 0.00in /  0mm
11:19 81.1 °F /  27.3 °C 67.8 °F /  19.9 °C 29.90in /  1012.4hPa South 2.0mph /  3.2km/h 7.0mph /  11.3km/h 64% 0.00in /  0mm
11:25 81.5 °F /  27.5 °C 69.5 °F /  20.8 °C 29.90in /  1012.4hPa WNW 3.0mph /  4.8km/h 9.0mph /  14.5km/h 67% 0.00in /  0mm
11:30 82.0 °F /  27.8 °C 69.5 °F /  20.8 °C 29.90in /  1012.4hPa WNW 3.0mph /  4.8km/h 10.0mph /  16.1km/h 66% 0.00in /  0mm
11:34 82.2 °F /  27.9 °C 68.8 °F /  20.4 °C 29.90in /  1012.4hPa SSW 5.0mph /  8km/h 10.0mph /  16.1km/h 64% 0.00in /  0mm
11:40 82.3 °F /  27.9 °C 67.5 °F /  19.7 °C 29.90in /  1012.4hPa West 3.0mph /  4.8km/h 10.0mph /  16.1km/h 61% 0.00in /  0mm
11:45 82.0 °F /  27.8 °C 68.2 °F /  20.1 °C 29.90in /  1012.4hPa WSW 5.0mph /  8km/h 10.0mph /  16.1km/h 63% 0.00in /  0mm
11:50 82.2 °F /  27.9 °C 69.3 °F /  20.7 °C 29.90in /  1012.4hPa West 5.0mph /  8km/h 10.0mph /  16.1km/h 65% 0.00in /  0mm
11:54 81.9 °F /  27.7 °C 69.0 °F /  20.6 °C 29.90in /  1012.4hPa WSW 5.0mph /  8km/h 10.0mph /  16.1km/h 65% 0.00in /  0mm
12:00 82.2 °F /  27.9 °C 68.4 °F /  20.2 °C 29.90in /  1012.4hPa West 5.0mph /  8km/h 10.0mph /  16.1km/h 63% 0.00in /  0mm
12:05 82.1 °F /  27.8 °C 69.2 °F /  20.7 °C 29.90in /  1012.4hPa SW 3.0mph /  4.8km/h 8.0mph /  12.9km/h 65% 0.00in /  0mm
12:10 82.3 °F /  27.9 °C 68.5 °F /  20.3 °C 29.90in /  1012.4hPa WSW 2.0mph /  3.2km/h 14.0mph /  22.5km/h 63% 0.00in /  0mm
12:14 82.1 °F /  27.8 °C 68.3 °F /  20.2 °C 29.90in /  1012.4hPa WNW 5.0mph /  8km/h 14.0mph /  22.5km/h 63% 0.00in /  0mm
12:20 82.3 °F /  27.9 °C 68.5 °F /  20.3 °C 29.90in /  1012.4hPa WSW 1.0mph /  1.6km/h 10.0mph /  16.1km/h 63% 0.00in /  0mm
12:25 82.6 °F /  28.1 °C 68.7 °F /  20.4 °C 29.90in /  1012.4hPa WNW 3.0mph /  4.8km/h 8.0mph /  12.9km/h 63% 0.00in /  0mm
12:30 82.3 °F /  27.9 °C 68.5 °F /  20.3 °C 29.90in /  1012.4hPa WSW 2.0mph /  3.2km/h 8.0mph /  12.9km/h 63% 0.00in /  0mm
12:34 82.5 °F /  28.1 °C 68.2 °F /  20.1 °C 29.91in /  1012.8hPa WSW 3.0mph /  4.8km/h 13.0mph /  20.9km/h 62% 0.00in /  0mm
12:40 82.8 °F /  28.2 °C 67.5 °F /  19.7 °C 29.91in /  1012.8hPa SSW 4.0mph /  6.4km/h 13.0mph /  20.9km/h 60% 0.00in /  0mm
12:45 82.6 °F /  28.1 °C 67.3 °F /  19.6 °C 29.91in /  1012.8hPa SW 3.0mph /  4.8km/h 10.0mph /  16.1km/h 60% 0.00in /  0mm
12:49 83.3 °F /  28.5 °C 69.4 °F /  20.8 °C 29.90in /  1012.4hPa WNW 3.0mph /  4.8km/h 8.0mph /  12.9km/h 63% 0.00in /  0mm
12:54 83.4 °F /  28.6 °C 67.1 °F /  19.5 °C 29.91in /  1012.8hPa WNW 5.0mph /  8km/h 9.0mph /  14.5km/h 58% 0.00in /  0mm
13:00 83.5 °F /  28.6 °C 68.2 °F /  20.1 °C 29.91in /  1012.8hPa WNW 2.0mph /  3.2km/h 9.0mph /  14.5km/h 60% 0.00in /  0mm
13:05 82.9 °F /  28.3 °C 67.6 °F /  19.8 °C 29.91in /  1012.8hPa West 3.0mph /  4.8km/h 10.0mph /  16.1km/h 60% 0.00in /  0mm
13:09 82.1 °F /  27.8 °C 67.3 °F /  19.6 °C 29.91in /  1012.8hPa West 3.0mph /  4.8km/h 10.0mph /  16.1km/h 61% 0.00in /  0mm
13:14 81.9 °F /  27.7 °C 68.1 °F /  20.1 °C 29.91in /  1012.8hPa SW 1.0mph /  1.6km/h 8.0mph /  12.9km/h 63% 0.00in /  0mm
13:20 82.7 °F /  28.2 °C 68.4 °F /  20.2 °C 29.91in /  1012.8hPa West 3.0mph /  4.8km/h 8.0mph /  12.9km/h 62% 0.00in /  0mm
13:25 83.7 °F /  28.7 °C 70.7 °F /  21.5 °C 29.91in /  1012.8hPa WNW 1.0mph /  1.6km/h 8.0mph /  12.9km/h 65% 0.00in /  0mm
13:29 84.5 °F /  29.2 °C 68.1 °F /  20.1 °C 29.91in /  1012.8hPa WNW 1.0mph /  1.6km/h 8.0mph /  12.9km/h 58% 0.00in /  0mm
13:34 83.7 °F /  28.7 °C 67.4 °F /  19.7 °C 29.91in /  1012.8hPa NW 1.0mph /  1.6km/h 5.0mph /  8km/h 58% 0.00in /  0mm
13:40 83.2 °F /  28.4 °C 69.3 °F /  20.7 °C 29.91in /  1012.8hPa Calm   5.0mph /  8km/h 63% 0.00in /  0mm
13:45 82.8 °F /  28.2 °C 68.9 °F /  20.5 °C 29.91in /  1012.8hPa NW 1.0mph /  1.6km/h 3.0mph /  4.8km/h 63% 0.00in /  0mm
13:49 82.0 °F /  27.8 °C 66.8 °F /  19.3 °C 29.91in /  1012.8hPa NW 2.0mph /  3.2km/h 6.0mph /  9.7km/h 60% 0.00in /  0mm
13:54 80.9 °F /  27.2 °C 67.1 °F /  19.5 °C 29.92in /  1013.1hPa WNW 2.0mph /  3.2km/h 6.0mph /  9.7km/h 63% 0.00in /  0mm
14:00 80.4 °F /  26.9 °C 67.6 °F /  19.8 °C 29.92in /  1013.1hPa WNW 1.0mph /  1.6km/h 4.0mph /  6.4km/h 65% 0.00in /  0mm
14:05 80.1 °F /  26.7 °C 67.7 °F /  19.8 °C 29.92in /  1013.1hPa NW 1.0mph /  1.6km/h 6.0mph /  9.7km/h 66% 0.00in /  0mm
14:09 80.1 °F /  26.7 °C 68.2 °F /  20.1 °C 29.92in /  1013.1hPa WNW 2.0mph /  3.2km/h 6.0mph /  9.7km/h 67% 0.00in /  0mm
14:15 80.5 °F /  26.9 °C 69.4 °F /  20.8 °C 29.92in /  1013.1hPa NW 2.0mph /  3.2km/h 5.0mph /  8km/h 69% 0.00in /  0mm
14:19 82.1 °F /  27.8 °C 70.9 °F /  21.6 °C 29.92in /  1013.1hPa NNW 3.0mph /  4.8km/h 6.0mph /  9.7km/h 69% 0.00in /  0mm
14:24 84.0 °F /  28.9 °C 69.6 °F /  20.9 °C 29.92in /  1013.1hPa WNW 4.0mph /  6.4km/h 10.0mph /  16.1km/h 62% 0.00in /  0mm
14:30 85.0 °F /  29.4 °C 67.6 °F /  19.8 °C 29.92in /  1013.1hPa NW 5.0mph /  8km/h 13.0mph /  20.9km/h 56% 0.00in /  0mm
14:35 84.5 °F /  29.2 °C 68.6 °F /  20.3 °C 29.92in /  1013.1hPa WNW 3.0mph /  4.8km/h 13.0mph /  20.9km/h 59% 0.00in /  0mm
14:39 84.1 °F /  28.9 °C 68.2 °F /  20.1 °C 29.93in /  1013.4hPa NNW 1.0mph /  1.6km/h 6.0mph /  9.7km/h 59% 0.00in /  0mm
14:44 84.6 °F /  29.2 °C 68.2 °F /  20.1 °C 29.93in /  1013.4hPa WNW 3.0mph /  4.8km/h 7.0mph /  11.3km/h 58% 0.00in /  0mm
14:50 85.2 °F /  29.6 °C 67.8 °F /  19.9 °C 29.93in /  1013.4hPa WNW 1.0mph /  1.6km/h 11.0mph /  17.7km/h 56% 0.00in /  0mm
14:59 86.4 °F /  30.2 °C 70.9 °F /  21.6 °C 29.93in /  1013.4hPa Calm   10.0mph /  16.1km/h 60% 0.00in /  0mm
15:05 86.2 °F /  30.1 °C 68.2 °F /  20.1 °C 29.93in /  1013.4hPa North 1.0mph /  1.6km/h 4.0mph /  6.4km/h 55% 0.00in /  0mm
15:10 86.0 °F /  30 °C 70.0 °F /  21.1 °C 29.93in /  1013.4hPa NW 2.0mph /  3.2km/h 4.0mph /  6.4km/h 59% 0.00in /  0mm
15:14 85.6 °F /  29.8 °C 69.2 °F /  20.7 °C 29.93in /  1013.4hPa NNW 1.0mph /  1.6km/h 7.0mph /  11.3km/h 58% 0.00in /  0mm
15:20 85.4 °F /  29.7 °C 70.0 °F /  21.1 °C 29.93in /  1013.4hPa Calm   7.0mph /  11.3km/h 60% 0.00in /  0mm
15:25 85.9 °F /  29.9 °C 68.9 °F /  20.5 °C 29.93in /  1013.4hPa WNW 1.0mph /  1.6km/h 5.0mph /  8km/h 57% 0.00in /  0mm
15:29 86.2 °F /  30.1 °C 67.1 °F /  19.5 °C 29.93in /  1013.4hPa NW 3.0mph /  4.8km/h 7.0mph /  11.3km/h 53% 0.00in /  0mm
15:35 86.3 °F /  30.2 °C 68.8 °F /  20.4 °C 29.93in /  1013.4hPa NW 2.0mph /  3.2km/h 7.0mph /  11.3km/h 56% 0.00in /  0mm
15:40 86.4 °F /  30.2 °C 67.3 °F /  19.6 °C 29.93in /  1013.4hPa NW 3.0mph /  4.8km/h 9.0mph /  14.5km/h 53% 0.00in /  0mm
15:44 86.1 °F /  30.1 °C 66.4 °F /  19.1 °C 29.93in /  1013.4hPa NW 1.0mph /  1.6km/h 10.0mph /  16.1km/h 52% 0.00in /  0mm
15:49 86.2 °F /  30.1 °C 66.0 °F /  18.9 °C 29.93in /  1013.4hPa NE 2.0mph /  3.2km/h 10.0mph /  16.1km/h 51% 0.00in /  0mm
15:55 86.5 °F /  30.3 °C 68.4 °F /  20.2 °C 29.93in /  1013.4hPa WNW 1.0mph /  1.6km/h 7.0mph /  11.3km/h 55% 0.00in /  0mm
16:00 87.0 °F /  30.6 °C 67.3 °F /  19.6 °C 29.93in /  1013.4hPa NW 1.0mph /  1.6km/h 7.0mph /  11.3km/h 52% 0.00in /  0mm
16:04 87.2 °F /  30.7 °C 66.9 °F /  19.4 °C 29.93in /  1013.4hPa NW 1.0mph /  1.6km/h 7.0mph /  11.3km/h 51% 0.00in /  0mm
16:09 87.3 °F /  30.7 °C 67.6 °F /  19.8 °C 29.93in /  1013.4hPa NNE 1.0mph /  1.6km/h 7.0mph /  11.3km/h 52% 0.00in /  0mm
16:15 87.4 °F /  30.8 °C 68.2 °F /  20.1 °C 29.93in /  1013.4hPa Calm   4.0mph /  6.4km/h 53% 0.00in /  0mm
16:20 87.4 °F /  30.8 °C 67.6 °F /  19.8 °C 29.93in /  1013.4hPa NW 2.0mph /  3.2km/h 5.0mph /  8km/h 52% 0.00in /  0mm
16:24 87.1 °F /  30.6 °C 67.9 °F /  19.9 °C 29.93in /  1013.4hPa NW 1.0mph /  1.6km/h 7.0mph /  11.3km/h 53% 0.00in /  0mm
16:29 86.8 °F /  30.4 °C 67.6 °F /  19.8 °C 29.93in /  1013.4hPa WNW 1.0mph /  1.6km/h 7.0mph /  11.3km/h 53% 0.00in /  0mm
16:34 86.5 °F /  30.3 °C 65.7 °F /  18.7 °C 29.93in /  1013.4hPa NE 2.0mph /  3.2km/h 7.0mph /  11.3km/h 50% 0.00in /  0mm
16:40 86.4 °F /  30.2 °C 66.7 °F /  19.3 °C 29.93in /  1013.4hPa NW 2.0mph /  3.2km/h 9.0mph /  14.5km/h 52% 0.00in /  0mm
16:45 86.3 °F /  30.2 °C 67.2 °F /  19.6 °C 29.93in /  1013.4hPa Calm   9.0mph /  14.5km/h 53% 0.00in /  0mm
16:49 86.3 °F /  30.2 °C 67.7 °F /  19.8 °C 29.93in /  1013.4hPa NE 1.0mph /  1.6km/h 5.0mph /  8km/h 54% 0.00in /  0mm
16:54 86.2 °F /  30.1 °C 68.2 °F /  20.1 °C 29.94in /  1013.8hPa NW 2.0mph /  3.2km/h 6.0mph /  9.7km/h 55% 0.00in /  0mm
16:59 86.2 °F /  30.1 °C 66.0 °F /  18.9 °C 29.94in /  1013.8hPa NNE 1.0mph /  1.6km/h 7.0mph /  11.3km/h 51% 0.00in /  0mm
17:04 85.5 °F /  29.7 °C 65.9 °F /  18.8 °C 29.94in /  1013.8hPa NE 4.0mph /  6.4km/h 8.0mph /  12.9km/h 52% 0.00in /  0mm
17:09 84.8 °F /  29.3 °C 65.2 °F /  18.4 °C 29.94in /  1013.8hPa NNE 3.0mph /  4.8km/h 8.0mph /  12.9km/h 52% 0.00in /  0mm
17:15 85.1 °F /  29.5 °C 67.1 °F /  19.5 °C 29.95in /  1014.1hPa NNW 1.0mph /  1.6km/h 7.0mph /  11.3km/h 55% 0.00in /  0mm
17:19 85.1 °F /  29.5 °C 65.0 °F /  18.3 °C 29.95in /  1014.1hPa NW 2.0mph /  3.2km/h 10.0mph /  16.1km/h 51% 0.00in /  0mm
17:25 84.1 °F /  28.9 °C 65.1 °F /  18.4 °C 29.95in /  1014.1hPa WNW 2.0mph /  3.2km/h 10.0mph /  16.1km/h 53% 0.00in /  0mm
17:29 83.7 °F /  28.7 °C 65.3 °F /  18.5 °C 29.95in /  1014.1hPa NE 2.0mph /  3.2km/h 7.0mph /  11.3km/h 54% 0.00in /  0mm
17:35 83.4 °F /  28.6 °C 65.6 °F /  18.7 °C 29.95in /  1014.1hPa NW 3.0mph /  4.8km/h 8.0mph /  12.9km/h 55% 0.00in /  0mm
17:39 82.9 °F /  28.3 °C 66.1 °F /  18.9 °C 29.96in /  1014.4hPa NW 1.0mph /  1.6km/h 8.0mph /  12.9km/h 57% 0.00in /  0mm
17:44 83.1 °F /  28.4 °C 66.3 °F /  19.1 °C 29.96in /  1014.4hPa Calm   7.0mph /  11.3km/h 57% 0.00in /  0mm
17:50 83.4 °F /  28.6 °C 67.6 °F /  19.8 °C 29.96in /  1014.4hPa NW 1.0mph /  1.6km/h 5.0mph /  8km/h 59% 0.00in /  0mm
17:55 83.6 °F /  28.7 °C 65.7 °F /  18.7 °C 29.96in /  1014.4hPa NW 2.0mph /  3.2km/h 9.0mph /  14.5km/h 55% 0.00in /  0mm
17:59 83.3 °F /  28.5 °C 66.0 °F /  18.9 °C 29.96in /  1014.4hPa WNW 1.0mph /  1.6km/h 9.0mph /  14.5km/h 56% 0.00in /  0mm
18:04 82.9 °F /  28.3 °C 65.1 °F /  18.4 °C 29.96in /  1014.4hPa Calm   6.0mph /  9.7km/h 55% 0.00in /  0mm
18:10 82.9 °F /  28.3 °C 66.1 °F /  18.9 °C 29.96in /  1014.4hPa Calm   7.0mph /  11.3km/h 57% 0.00in /  0mm
18:14 83.0 °F /  28.3 °C 65.7 °F /  18.7 °C 29.96in /  1014.4hPa NNE 1.0mph /  1.6km/h 7.0mph /  11.3km/h 56% 0.00in /  0mm
18:19 83.0 °F /  28.3 °C 66.2 °F /  19 °C 29.96in /  1014.4hPa Calm   7.0mph /  11.3km/h 57% 0.00in /  0mm
18:25 83.1 °F /  28.4 °C 65.8 °F /  18.8 °C 29.96in /  1014.4hPa Calm   4.0mph /  6.4km/h 56% 0.00in /  0mm
18:30 83.0 °F /  28.3 °C 65.7 °F /  18.7 °C 29.96in /  1014.4hPa Calm   1.0mph /  1.6km/h 56% 0.00in /  0mm
18:34 82.7 °F /  28.2 °C 64.9 °F /  18.3 °C 29.96in /  1014.4hPa NE 1.0mph /  1.6km/h 3.0mph /  4.8km/h 55% 0.00in /  0mm
18:39 82.4 °F /  28 °C 66.7 °F /  19.3 °C 29.97in /  1014.8hPa Calm   3.0mph /  4.8km/h 59% 0.00in /  0mm
18:45 81.9 °F /  27.7 °C 65.2 °F /  18.4 °C 29.97in /  1014.8hPa Calm   3.0mph /  4.8km/h 57% 0.00in /  0mm
18:49 81.5 °F /  27.5 °C 65.3 °F /  18.5 °C 29.97in /  1014.8hPa Calm   5.0mph /  8km/h 58% 0.00in /  0mm
18:54 81.4 °F /  27.4 °C 65.2 °F /  18.4 °C 29.97in /  1014.8hPa Calm   5.0mph /  8km/h 58% 0.00in /  0mm
18:59 81.4 °F /  27.4 °C 66.2 °F /  19 °C 29.97in /  1014.8hPa Calm   2.0mph /  3.2km/h 60% 0.00in /  0mm
19:05 81.4 °F /  27.4 °C 66.2 °F /  19 °C 29.97in /  1014.8hPa Calm     60% 0.00in /  0mm
19:09 81.4 °F /  27.4 °C 65.7 °F /  18.7 °C 29.97in /  1014.8hPa Calm   2.0mph /  3.2km/h 59% 0.00in /  0mm
19:14 81.4 °F /  27.4 °C 66.2 °F /  19 °C 29.97in /  1014.8hPa Calm   2.0mph /  3.2km/h 60% 0.00in /  0mm
19:19 81.2 °F /  27.3 °C 66.5 °F /  19.2 °C 29.97in /  1014.8hPa Calm     61% 0.00in /  0mm
19:25 80.9 °F /  27.2 °C 66.2 °F /  19 °C 29.97in /  1014.8hPa Calm     61% 0.00in /  0mm
19:29 80.4 °F /  26.9 °C 66.7 °F /  19.3 °C 29.97in /  1014.8hPa Calm     63% 0.00in /  0mm
19:34 79.6 °F /  26.4 °C 64.0 °F /  17.8 °C 29.98in /  1015.1hPa NNE 1.0mph /  1.6km/h 5.0mph /  8km/h 59% 0.00in /  0mm
19:40 78.7 °F /  25.9 °C 64.6 °F /  18.1 °C 29.98in /  1015.1hPa Calm   5.0mph /  8km/h 62% 0.00in /  0mm
19:44 78.0 °F /  25.6 °C 64.9 °F /  18.3 °C 29.98in /  1015.1hPa Calm   1.0mph /  1.6km/h 64% 0.00in /  0mm
19:49 77.3 °F /  25.2 °C 65.1 °F /  18.4 °C 29.98in /  1015.1hPa Calm     66% 0.00in /  0mm
19:54 76.3 °F /  24.6 °C 65.0 °F /  18.3 °C 29.98in /  1015.1hPa Calm     68% 0.00in /  0mm
20:00 75.3 °F /  24.1 °C 64.0 °F /  17.8 °C 29.98in /  1015.1hPa Calm     68% 0.00in /  0mm
20:04 74.5 °F /  23.6 °C 64.1 °F /  17.8 °C 29.98in /  1015.1hPa Calm     70% 0.00in /  0mm
20:10 73.5 °F /  23.1 °C 63.5 °F /  17.5 °C 29.99in /  1015.5hPa Calm     71% 0.00in /  0mm
20:14 72.3 °F /  22.4 °C 63.2 °F /  17.3 °C 29.98in /  1015.1hPa Calm     73% 0.00in /  0mm
20:20 71.3 °F /  21.8 °C 62.6 °F /  17 °C 29.99in /  1015.5hPa Calm     74% 0.00in /  0mm
20:24 70.6 °F /  21.4 °C 62.3 °F /  16.8 °C 29.99in /  1015.5hPa Calm     75% 0.00in /  0mm
20:29 70.0 °F /  21.1 °C 62.1 °F /  16.7 °C 30.00in /  1015.8hPa Calm     76% 0.00in /  0mm
20:34 69.5 °F /  20.8 °C 61.6 °F /  16.4 °C 30.00in /  1015.8hPa Calm     76% 0.00in /  0mm
20:40 69.1 °F /  20.6 °C 61.6 °F /  16.4 °C 30.00in /  1015.8hPa Calm   1.0mph /  1.6km/h 77% 0.00in /  0mm
20:44 68.8 °F /  20.4 °C 61.3 °F /  16.3 °C 30.00in /  1015.8hPa Calm   1.0mph /  1.6km/h 77% 0.00in /  0mm
20:49 68.5 °F /  20.3 °C 61.4 °F /  16.3 °C 30.00in /  1015.8hPa Calm     78% 0.00in /  0mm
20:55 68.0 °F /  20 °C 61.3 °F /  16.3 °C 30.00in /  1015.8hPa Calm     79% 0.00in /  0mm
20:59 67.6 °F /  19.8 °C 60.9 °F /  16.1 °C 30.01in /  1016.1hPa Calm     79% 0.00in /  0mm
21:04 67.2 °F /  19.6 °C 60.8 °F /  16 °C 30.01in /  1016.1hPa Calm     80% 0.00in /  0mm
21:09 67.0 °F /  19.4 °C 60.6 °F /  15.9 °C 30.01in /  1016.1hPa Calm     80% 0.00in /  0mm
21:15 66.7 °F /  19.3 °C 60.7 °F /  15.9 °C 30.01in /  1016.1hPa Calm     81% 0.00in /  0mm
21:19 66.7 °F /  19.3 °C 60.7 °F /  15.9 °C 30.01in /  1016.1hPa Calm   1.0mph /  1.6km/h 81% 0.00in /  0mm
21:24 66.6 °F /  19.2 °C 60.6 °F /  15.9 °C 30.01in /  1016.1hPa Calm   1.0mph /  1.6km/h 81% 0.00in /  0mm
21:30 66.4 °F /  19.1 °C 60.4 °F /  15.8 °C 30.02in /  1016.5hPa Calm     81% 0.00in /  0mm
21:34 66.2 °F /  19 °C 60.2 °F /  15.7 °C 30.02in /  1016.5hPa Calm     81% 0.00in /  0mm
21:39 66.0 °F /  18.9 °C 60.0 °F /  15.6 °C 30.02in /  1016.5hPa Calm     81% 0.00in /  0mm
21:45 65.6 °F /  18.7 °C 60.0 °F /  15.6 °C 30.02in /  1016.5hPa Calm     82% 0.00in /  0mm
21:49 65.3 °F /  18.5 °C 59.7 °F /  15.4 °C 30.02in /  1016.5hPa Calm     82% 0.00in /  0mm
21:54 65.0 °F /  18.3 °C 59.7 °F /  15.4 °C 30.02in /  1016.5hPa Calm     83% 0.00in /  0mm
21:59 64.8 °F /  18.2 °C 59.5 °F /  15.3 °C 30.02in /  1016.5hPa Calm     83% 0.00in /  0mm
22:05 64.6 °F /  18.1 °C 59.3 °F /  15.2 °C 30.03in /  1016.8hPa Calm     83% 0.00in /  0mm
22:10 64.5 °F /  18.1 °C 59.6 °F /  15.3 °C 30.03in /  1016.8hPa Calm     84% 0.00in /  0mm
22:14 64.4 °F /  18 °C 59.5 °F /  15.3 °C 30.03in /  1016.8hPa Calm     84% 0.00in /  0mm
22:20 64.4 °F /  18 °C 59.5 °F /  15.3 °C 30.03in /  1016.8hPa Calm     84% 0.00in /  0mm
22:24 64.6 °F /  18.1 °C 59.7 °F /  15.4 °C 30.03in /  1016.8hPa Calm     84% 0.00in /  0mm
22:29 64.7 °F /  18.2 °C 59.8 °F /  15.4 °C 30.03in /  1016.8hPa Calm     84% 0.00in /  0mm
22:34 64.6 °F /  18.1 °C 59.7 °F /  15.4 °C 30.04in /  1017.2hPa Calm     84% 0.00in /  0mm
22:39 64.5 °F /  18.1 °C 59.6 °F /  15.3 °C 30.04in /  1017.2hPa Calm     84% 0.00in /  0mm
22:45 64.2 °F /  17.9 °C 59.3 °F /  15.2 °C 30.04in /  1017.2hPa Calm     84% 0.00in /  0mm
22:49 63.9 °F /  17.7 °C 59.0 °F /  15 °C 30.04in /  1017.2hPa Calm     84% 0.00in /  0mm
22:54 63.7 °F /  17.6 °C 58.8 °F /  14.9 °C 30.04in /  1017.2hPa Calm     84% 0.00in /  0mm
23:00 63.5 °F /  17.5 °C 58.9 °F /  14.9 °C 30.05in /  1017.5hPa Calm     85% 0.00in /  0mm
23:04 63.3 °F /  17.4 °C 59.0 °F /  15 °C 30.05in /  1017.5hPa Calm     86% 0.00in /  0mm
23:09 63.1 °F /  17.3 °C 58.8 °F /  14.9 °C 30.05in /  1017.5hPa Calm     86% 0.00in /  0mm
23:15 62.9 °F /  17.2 °C 58.7 °F /  14.8 °C 30.05in /  1017.5hPa Calm     86% 0.00in /  0mm
23:19 62.7 °F /  17.1 °C 58.8 °F /  14.9 °C 30.05in /  1017.5hPa Calm     87% 0.00in /  0mm
23:25 62.4 °F /  16.9 °C 58.5 °F /  14.7 °C 30.05in /  1017.5hPa Calm     87% 0.00in /  0mm
23:29 62.4 °F /  16.9 °C 58.5 °F /  14.7 °C 30.05in /  1017.5hPa Calm     87% 0.00in /  0mm
23:34 62.3 °F /  16.8 °C 58.7 °F /  14.8 °C 30.05in /  1017.5hPa Calm     88% 0.00in /  0mm
23:39 62.1 °F /  16.7 °C 58.5 °F /  14.7 °C 30.05in /  1017.5hPa Calm     88% 0.00in /  0mm
23:45 61.9 °F /  16.6 °C 58.3 °F /  14.6 °C 30.06in /  1017.8hPa Calm     88% 0.00in /  0mm
23:49 61.8 °F /  16.6 °C 58.2 °F /  14.6 °C 30.06in /  1017.8hPa Calm     88% 0.00in /  0mm
23:54 61.6 °F /  16.4 °C 58.0 °F /  14.4 °C 30.06in /  1017.8hPa Calm     88% 0.00in /  0mm
23:59 61.4 °F /  16.3 °C 57.8 °F /  14.3 °C 30.06in /  1017.8hPa Calm     88% 0.00in /  0mm
Westford Weather
Compliments of Weather Underground

 
 
Current Radar Loop:

Copyright © WestfordWeather.net 2007-2014. All rights reserved.